CMB850 Details

Departure: Bahrain International Airport (OBBI)
Arrival: RAFO Thumrait (OOTH)
Route: ASTAD N318 VELAM R659 DOH UL564 BAT UL564 KUTNA UT100 GOBRO
Notes: USTRANSCOM CONTRACT FLIGHT


Current Weather Information
OBBI 252330Z 05010KT 8000 NSC 23/19 Q1008 NOSIG
No METAR available for OOTH.